createdAt,value
2019-03-17T00:00:17.855Z,94.62
2019-03-17T00:02:50.659Z,95.19
2019-03-17T00:05:21.819Z,94.30
2019-03-17T00:07:53.148Z,92.93
2019-03-17T00:10:24.767Z,93.30
2019-03-17T00:12:56.318Z,93.04
2019-03-17T00:15:27.906Z,93.84
2019-03-17T00:17:59.258Z,93.55
2019-03-17T00:20:30.691Z,94.11
2019-03-17T00:23:02.069Z,94.36
2019-03-17T00:25:33.438Z,94.40
2019-03-17T00:28:05.964Z,94.71
2019-03-17T00:30:37.661Z,94.34
2019-03-17T00:33:09.058Z,94.58
2019-03-17T00:35:40.316Z,94.88
2019-03-17T00:38:11.994Z,96.24
2019-03-17T00:40:43.160Z,95.52
2019-03-17T00:43:14.670Z,94.29
2019-03-17T00:45:46.585Z,93.34
2019-03-17T00:48:17.791Z,93.32
2019-03-17T00:50:49.188Z,93.86
2019-03-17T00:53:20.709Z,94.03
2019-03-17T00:55:52.045Z,94.85
2019-03-17T00:58:23.397Z,93.93
2019-03-17T01:00:54.780Z,94.54
2019-03-17T01:03:25.988Z,93.33
2019-03-17T01:05:57.147Z,94.57
2019-03-17T01:08:28.486Z,94.01
2019-03-17T01:11:00.132Z,93.53
2019-03-17T01:13:31.401Z,94.25
2019-03-17T01:16:02.676Z,94.63
2019-03-17T01:18:33.934Z,93.78
2019-03-17T01:21:05.499Z,94.04
2019-03-17T01:23:36.760Z,93.61
2019-03-17T01:26:08.268Z,94.29
2019-03-17T01:28:40.208Z,94.94
2019-03-17T01:31:11.899Z,95.40
2019-03-17T01:33:43.498Z,95.83
2019-03-17T01:36:14.842Z,95.98
2019-03-17T01:38:46.263Z,95.70
2019-03-17T01:41:18.106Z,96.34
2019-03-17T01:43:49.668Z,96.05
2019-03-17T01:46:21.104Z,95.49
2019-03-17T01:48:52.297Z,95.07
2019-03-17T01:51:23.617Z,94.47
2019-03-17T01:53:54.970Z,94.82
2019-03-17T01:56:26.201Z,95.13
2019-03-17T01:58:57.827Z,95.22
2019-03-17T02:01:29.031Z,95.30
2019-03-17T02:04:00.408Z,95.82
2019-03-17T02:06:31.688Z,95.93
2019-03-17T02:09:03.994Z,95.62
2019-03-17T02:11:35.654Z,94.95
2019-03-17T02:14:07.110Z,94.83
2019-03-17T02:16:38.528Z,94.65
2019-03-17T02:19:09.811Z,94.00
2019-03-17T02:21:40.951Z,94.48
2019-03-17T02:24:12.840Z,94.55
2019-03-17T02:26:44.345Z,94.20
2019-03-17T02:29:15.700Z,94.04
2019-03-17T02:31:47.349Z,93.80
2019-03-17T02:34:18.603Z,93.94
2019-03-17T02:36:49.841Z,93.77
2019-03-17T02:39:21.043Z,95.23
2019-03-17T02:41:52.428Z,95.57
2019-03-17T02:44:23.694Z,95.37
2019-03-17T02:46:55.088Z,96.70
2019-03-17T02:49:26.443Z,97.34
2019-03-17T02:51:57.615Z,97.23
2019-03-17T02:54:28.929Z,97.09
2019-03-17T02:57:00.122Z,96.47
2019-03-17T02:59:31.670Z,95.61
2019-03-17T03:02:03.188Z,96.27
2019-03-17T03:04:34.470Z,95.99
2019-03-17T03:07:05.931Z,95.91
2019-03-17T03:09:37.301Z,95.37
2019-03-17T03:12:08.578Z,95.83
2019-03-17T03:14:39.982Z,95.89
2019-03-17T03:17:11.321Z,95.51
2019-03-17T03:19:42.571Z,95.58
2019-03-17T03:22:14.011Z,95.26
2019-03-17T03:24:45.318Z,95.15
2019-03-17T03:27:16.917Z,94.58
2019-03-17T03:29:48.299Z,94.93
2019-03-17T03:32:19.484Z,94.61
2019-03-17T03:34:50.885Z,94.42
2019-03-17T03:37:22.145Z,94.54
2019-03-17T03:39:53.537Z,95.27
2019-03-17T03:42:24.942Z,95.86
2019-03-17T03:44:56.250Z,95.93
2019-03-17T03:47:27.600Z,95.90
2019-03-17T03:49:58.881Z,95.20
2019-03-17T03:52:30.294Z,95.08
2019-03-17T03:55:01.572Z,95.03
2019-03-17T03:57:33.226Z,94.78
2019-03-17T04:00:05.061Z,94.41
2019-03-17T04:02:36.468Z,94.94
2019-03-17T04:05:07.975Z,95.38
2019-03-17T04:07:39.372Z,96.07
2019-03-17T04:10:11.383Z,96.75
2019-03-17T04:12:42.811Z,96.58
2019-03-17T04:15:14.626Z,96.70
2019-03-17T04:17:45.820Z,96.92
2019-03-17T04:20:18.541Z,96.46
2019-03-17T04:22:50.154Z,96.32
2019-03-17T04:25:21.512Z,96.21
2019-03-17T04:27:53.419Z,96.31
2019-03-17T04:30:24.849Z,96.24
2019-03-17T04:32:56.541Z,96.13
2019-03-17T04:35:27.917Z,96.05
2019-03-17T04:37:59.451Z,95.78
2019-03-17T04:40:31.404Z,95.89
2019-03-17T04:43:02.918Z,95.38
2019-03-17T04:45:34.289Z,94.97
2019-03-17T04:48:05.792Z,95.27
2019-03-17T04:50:37.408Z,95.56
2019-03-17T04:53:08.690Z,95.63
2019-03-17T04:55:40.589Z,95.87
2019-03-17T04:58:11.917Z,95.90
2019-03-17T05:00:43.600Z,96.02
2019-03-17T05:03:14.945Z,96.82
2019-03-17T05:05:46.509Z,96.50
2019-03-17T05:08:17.787Z,96.04
2019-03-17T05:10:49.595Z,95.82
2019-03-17T05:13:21.377Z,95.96
2019-03-17T05:15:52.669Z,95.89
2019-03-17T05:18:24.382Z,95.73
2019-03-17T05:20:55.767Z,95.40
2019-03-17T05:23:27.049Z,96.31
2019-03-17T05:25:58.337Z,96.55
2019-03-17T05:28:29.750Z,96.37
2019-03-17T05:31:01.231Z,96.63
2019-03-17T05:33:33.075Z,96.23
2019-03-17T05:36:04.541Z,96.13
2019-03-17T05:38:35.900Z,96.32
2019-03-17T05:41:07.348Z,96.38
2019-03-17T05:43:38.724Z,96.09
2019-03-17T05:46:10.029Z,96.24
2019-03-17T05:48:41.688Z,95.96
2019-03-17T05:51:13.126Z,95.24
2019-03-17T05:53:44.526Z,94.67
2019-03-17T05:56:15.884Z,95.16
2019-03-17T05:58:47.168Z,95.80
2019-03-17T06:01:18.654Z,95.93
2019-03-17T06:03:50.003Z,96.20
2019-03-17T06:06:21.288Z,95.25
2019-03-17T06:08:52.721Z,95.10
2019-03-17T06:11:23.923Z,95.33
2019-03-17T06:13:55.166Z,93.74
2019-03-17T06:16:26.421Z,93.27
2019-03-17T06:18:57.857Z,92.57
2019-03-17T06:21:29.554Z,92.16
2019-03-17T06:24:01.209Z,91.77
2019-03-17T06:26:32.493Z,92.44
2019-03-17T06:29:03.812Z,93.65
2019-03-17T06:31:35.186Z,92.68
2019-03-17T06:34:06.790Z,92.45
2019-03-17T06:36:38.130Z,89.11
2019-03-17T06:39:09.821Z,88.21
2019-03-17T06:41:41.081Z,85.84
2019-03-17T06:44:12.272Z,83.39
2019-03-17T06:46:43.619Z,82.02
2019-03-17T06:49:14.909Z,82.52
2019-03-17T06:51:46.501Z,80.90
2019-03-17T06:54:17.800Z,81.38
2019-03-17T06:56:49.080Z,82.98
2019-03-17T06:59:20.620Z,82.98
2019-03-17T07:01:52.719Z,75.86
2019-03-17T07:04:24.983Z,75.73
2019-03-17T07:06:56.168Z,76.53
2019-03-17T07:09:27.753Z,74.82
2019-03-17T07:11:59.439Z,74.26
2019-03-17T07:14:30.859Z,75.49
2019-03-17T07:17:02.186Z,76.19
2019-03-17T07:19:33.464Z,76.36
2019-03-17T07:22:04.864Z,73.73
2019-03-17T07:24:36.316Z,72.81
2019-03-17T07:27:07.924Z,75.94
2019-03-17T07:29:39.317Z,76.07
2019-03-17T07:32:10.618Z,75.18
2019-03-17T07:34:41.968Z,72.94
2019-03-17T07:37:13.350Z,73.28
2019-03-17T07:39:44.684Z,71.89
2019-03-17T07:42:15.972Z,72.03
2019-03-17T07:44:47.238Z,73.77
2019-03-17T07:47:19.854Z,71.23
2019-03-17T07:49:52.147Z,71.29
2019-03-17T07:52:23.506Z,68.08
2019-03-17T07:54:55.850Z,65.14
2019-03-17T07:57:27.117Z,59.14
2019-03-17T07:59:58.315Z,54.76
2019-03-17T08:02:29.660Z,51.39
2019-03-17T08:05:00.947Z,50.44
2019-03-17T08:07:32.412Z,47.64
2019-03-17T08:10:04.733Z,45.83
2019-03-17T08:12:35.994Z,47.34
2019-03-17T08:15:09.380Z,45.33
2019-03-17T08:17:40.823Z,43.10
2019-03-17T08:20:12.318Z,46.25
2019-03-17T08:22:43.667Z,43.63
2019-03-17T08:25:15.091Z,48.30
2019-03-17T08:27:46.873Z,44.73
2019-03-17T08:30:18.371Z,43.55
2019-03-17T08:32:49.823Z,45.27
2019-03-17T08:35:21.373Z,43.22
2019-03-17T08:37:52.755Z,42.55
2019-03-17T08:40:25.220Z,44.45
2019-03-17T08:42:57.059Z,44.97
2019-03-17T08:45:28.414Z,43.44
2019-03-17T08:47:59.949Z,43.30
2019-03-17T08:50:31.294Z,43.45
2019-03-17T08:53:02.662Z,42.15
2019-03-17T08:55:33.893Z,42.00
2019-03-17T08:58:05.571Z,44.66
2019-03-17T09:00:37.251Z,42.45
2019-03-17T09:03:08.517Z,43.74
2019-03-17T09:05:39.999Z,45.24
2019-03-17T09:08:11.177Z,45.93
2019-03-17T09:10:42.461Z,43.81
2019-03-17T09:13:15.038Z,45.09
2019-03-17T09:15:46.431Z,44.03
2019-03-17T09:18:18.472Z,43.39
2019-03-17T09:20:50.535Z,44.21
2019-03-17T09:23:21.769Z,41.47
2019-03-17T09:25:53.377Z,43.45
2019-03-17T09:28:24.803Z,41.51
2019-03-17T09:30:56.507Z,42.39
2019-03-17T09:33:27.760Z,42.53
2019-03-17T09:35:59.030Z,43.04
2019-03-17T09:38:30.305Z,43.81
2019-03-17T09:41:01.775Z,42.87
2019-03-17T09:43:33.046Z,45.01
2019-03-17T09:46:04.916Z,43.92
2019-03-17T09:48:36.099Z,44.89
2019-03-17T09:51:07.491Z,44.91
2019-03-17T09:53:38.762Z,44.60
2019-03-17T09:56:10.124Z,46.39
2019-03-17T09:58:41.359Z,45.76
2019-03-17T10:01:12.704Z,43.97
2019-03-17T10:03:44.280Z,42.13
2019-03-17T10:06:15.655Z,41.77
2019-03-17T10:08:59.050Z,40.81
2019-03-17T10:11:20.064Z,40.82
2019-03-17T10:13:51.441Z,40.39
2019-03-17T10:16:22.825Z,39.54
2019-03-17T10:18:54.036Z,40.06
2019-03-17T10:21:26.026Z,40.07
2019-03-17T10:23:57.584Z,38.11
2019-03-17T10:26:29.217Z,38.13
2019-03-17T10:29:00.559Z,37.25
2019-03-17T10:31:35.296Z,38.08
2019-03-17T10:34:06.969Z,37.47
2019-03-17T10:36:38.182Z,37.29
2019-03-17T10:39:12.741Z,37.96
2019-03-17T10:41:42.585Z,39.59
2019-03-17T10:44:13.809Z,38.83
2019-03-17T10:46:45.168Z,37.66
2019-03-17T10:49:16.439Z,40.38
2019-03-17T10:51:47.907Z,40.10
2019-03-17T10:54:19.194Z,41.29
2019-03-17T10:56:50.429Z,39.97
2019-03-17T10:59:21.742Z,39.98
2019-03-17T11:01:53.168Z,39.16
2019-03-17T11:04:24.553Z,40.88
2019-03-17T11:06:56.145Z,41.55
2019-03-17T11:09:27.612Z,39.63
2019-03-17T11:11:58.947Z,41.48
2019-03-17T11:14:30.621Z,42.55
2019-03-17T11:17:02.667Z,42.72
2019-03-17T11:19:34.050Z,42.44
2019-03-17T11:22:05.417Z,41.97
2019-03-17T11:24:36.843Z,44.66
2019-03-17T11:27:08.102Z,44.06
2019-03-17T11:29:39.442Z,43.94
2019-03-17T11:32:10.662Z,44.44
2019-03-17T11:34:41.924Z,44.24
2019-03-17T11:37:13.428Z,45.55
2019-03-17T11:39:44.823Z,44.46
2019-03-17T11:42:16.215Z,43.13
2019-03-17T11:44:47.654Z,43.69
2019-03-17T11:47:18.986Z,43.25
2019-03-17T11:49:50.900Z,43.43
2019-03-17T11:52:22.342Z,41.45
2019-03-17T11:54:53.841Z,39.45
2019-03-17T11:57:25.442Z,39.18
2019-03-17T11:59:57.238Z,39.37
2019-03-17T12:02:28.931Z,38.39
2019-03-17T12:05:01.612Z,37.92
2019-03-17T12:07:33.300Z,34.03
2019-03-17T12:10:05.802Z,35.32
2019-03-17T12:12:37.645Z,35.00
2019-03-17T12:15:11.218Z,35.32
2019-03-17T12:17:42.645Z,35.68
2019-03-17T12:20:14.328Z,36.38
2019-03-17T12:22:45.869Z,36.50
2019-03-17T12:25:17.375Z,37.42
2019-03-17T12:27:48.667Z,37.37
2019-03-17T12:30:22.467Z,37.38
2019-03-17T12:32:53.904Z,38.38
2019-03-17T12:35:26.617Z,37.68
2019-03-17T12:37:58.136Z,36.88
2019-03-17T12:40:29.511Z,37.68
2019-03-17T12:43:01.080Z,36.48
2019-03-17T12:45:32.354Z,37.79
2019-03-17T12:48:03.722Z,38.24
2019-03-17T12:50:34.904Z,38.68
2019-03-17T12:53:07.885Z,37.44
2019-03-17T12:55:39.670Z,37.81
2019-03-17T12:58:10.887Z,37.05
2019-03-17T13:00:42.709Z,37.89
2019-03-17T13:03:13.855Z,37.96
2019-03-17T13:05:45.004Z,36.11
2019-03-17T13:08:16.547Z,36.88
2019-03-17T13:10:47.861Z,36.61
2019-03-17T13:13:19.016Z,38.10
2019-03-17T13:15:50.187Z,37.60
2019-03-17T13:18:21.793Z,38.41
2019-03-17T13:20:53.118Z,39.11
2019-03-17T13:23:24.519Z,39.76
2019-03-17T13:25:56.203Z,38.29
2019-03-17T13:28:27.864Z,39.16
2019-03-17T13:30:59.128Z,37.11
2019-03-17T13:33:31.094Z,37.36
2019-03-17T13:36:02.657Z,37.90
2019-03-17T13:38:33.822Z,36.46
2019-03-17T13:41:05.261Z,36.70
2019-03-17T13:43:36.597Z,37.59
2019-03-17T13:46:07.908Z,37.99
2019-03-17T13:48:39.377Z,38.65
2019-03-17T13:51:10.665Z,40.35
2019-03-17T13:53:42.274Z,40.60
2019-03-17T13:56:13.520Z,41.03
2019-03-17T13:58:44.731Z,41.71
2019-03-17T14:01:16.396Z,41.14
2019-03-17T14:03:47.876Z,40.97
2019-03-17T14:06:19.267Z,41.52
2019-03-17T14:08:50.450Z,41.49
2019-03-17T14:11:21.947Z,40.93
2019-03-17T14:13:53.099Z,41.50
2019-03-17T14:16:24.662Z,42.87
2019-03-17T14:18:56.089Z,42.83
2019-03-17T14:21:27.312Z,42.11
2019-03-17T14:23:59.347Z,42.81
2019-03-17T14:26:30.568Z,43.56
2019-03-17T14:29:01.727Z,43.75
2019-03-17T14:31:33.063Z,44.06
2019-03-17T14:34:04.320Z,43.18
2019-03-17T14:36:35.531Z,42.17
2019-03-17T14:39:08.405Z,43.07
2019-03-17T14:41:39.688Z,44.01
2019-03-17T14:44:10.878Z,44.10
2019-03-17T14:46:42.035Z,41.96
2019-03-17T14:49:13.448Z,42.52
2019-03-17T14:51:44.592Z,43.95
2019-03-17T14:54:15.842Z,43.18
2019-03-17T14:56:47.480Z,43.88
2019-03-17T14:59:18.638Z,42.86
2019-03-17T15:01:49.987Z,43.64
2019-03-17T15:04:21.207Z,44.18
2019-03-17T15:06:52.435Z,46.81
2019-03-17T15:09:23.693Z,49.02
2019-03-17T15:11:55.243Z,49.90
2019-03-17T15:14:26.918Z,50.63
2019-03-17T15:16:58.579Z,50.32
2019-03-17T15:19:29.812Z,48.53
2019-03-17T15:22:01.326Z,50.52
2019-03-17T15:24:32.585Z,47.72
2019-03-17T15:27:04.249Z,48.39
2019-03-17T15:29:35.508Z,48.40
2019-03-17T15:32:07.032Z,48.20
2019-03-17T15:34:38.210Z,48.35
2019-03-17T15:37:09.549Z,47.25
2019-03-17T15:39:40.994Z,46.43
2019-03-17T15:42:12.328Z,48.14
2019-03-17T15:44:43.651Z,49.44
2019-03-17T15:47:14.847Z,50.69
2019-03-17T15:49:46.213Z,52.89
2019-03-17T15:52:18.056Z,55.42
2019-03-17T15:54:49.213Z,57.60
2019-03-17T15:57:20.646Z,58.96
2019-03-17T15:59:51.842Z,59.87
2019-03-17T16:02:23.139Z,61.09
2019-03-17T16:04:54.324Z,62.56
2019-03-17T16:07:25.779Z,64.58
2019-03-17T16:09:57.447Z,65.86
2019-03-17T16:12:29.027Z,66.34
2019-03-17T16:15:00.869Z,66.83
2019-03-17T16:17:32.464Z,65.66
2019-03-17T16:20:03.844Z,66.53
2019-03-17T16:22:35.138Z,67.62
2019-03-17T16:25:07.125Z,68.75
2019-03-17T16:27:38.340Z,68.80
2019-03-17T16:30:14.225Z,70.18
2019-03-17T16:32:45.872Z,69.99
2019-03-17T16:35:17.277Z,70.97
2019-03-17T16:37:48.682Z,70.45
2019-03-17T16:40:21.931Z,70.04
2019-03-17T16:42:54.249Z,70.31
2019-03-17T16:45:26.116Z,71.23
2019-03-17T16:47:57.523Z,70.93
2019-03-17T16:50:28.918Z,71.48
2019-03-17T16:53:00.170Z,71.90
2019-03-17T16:55:31.532Z,72.80
2019-03-17T16:58:03.091Z,72.74
2019-03-17T17:00:34.542Z,72.99
2019-03-17T17:03:05.924Z,72.64
2019-03-17T17:05:37.259Z,74.00
2019-03-17T17:08:08.520Z,74.42
2019-03-17T17:10:49.555Z,73.48
2019-03-17T17:13:13.366Z,74.21
2019-03-17T17:15:45.060Z,75.27
2019-03-17T17:18:16.384Z,72.73
2019-03-17T17:20:48.774Z,72.69
2019-03-17T17:23:20.372Z,72.88
2019-03-17T17:25:51.800Z,72.26
2019-03-17T17:28:22.943Z,72.45
2019-03-17T17:30:54.121Z,72.03
2019-03-17T17:33:27.805Z,71.28
2019-03-17T17:35:58.433Z,71.32
2019-03-17T17:38:30.018Z,71.91
2019-03-17T17:41:01.362Z,72.25
2019-03-17T17:43:32.671Z,72.22
2019-03-17T17:46:04.366Z,72.49
2019-03-17T17:48:35.616Z,72.62
2019-03-17T17:51:06.987Z,72.84
2019-03-17T17:53:38.262Z,73.76
2019-03-17T17:56:09.790Z,73.68
2019-03-17T17:58:41.015Z,75.00
2019-03-17T18:01:12.181Z,73.30
2019-03-17T18:03:51.621Z,73.86
2019-03-17T18:06:16.514Z,74.14
2019-03-17T18:08:47.651Z,73.80
2019-03-17T18:11:19.272Z,74.33
2019-03-17T18:13:50.483Z,74.64
2019-03-17T18:16:21.778Z,74.18
2019-03-17T18:18:53.015Z,74.29
2019-03-17T18:21:24.394Z,74.92
2019-03-17T18:23:56.159Z,75.07
2019-03-17T18:26:44.580Z,74.64
2019-03-17T18:29:17.437Z,74.37
2019-03-17T18:31:48.938Z,74.57
2019-03-17T18:34:20.093Z,75.52
2019-03-17T18:36:51.286Z,75.61
2019-03-17T18:39:22.634Z,76.22
2019-03-17T18:41:53.942Z,75.36
2019-03-17T18:44:25.258Z,76.01
2019-03-17T18:46:56.421Z,75.85
2019-03-17T18:49:27.612Z,75.80
2019-03-17T18:51:59.198Z,75.54
2019-03-17T18:54:30.342Z,76.32
2019-03-17T18:57:01.681Z,75.84
2019-03-17T18:59:33.954Z,76.47
2019-03-17T19:02:05.372Z,76.01
2019-03-17T19:04:36.799Z,75.72
2019-03-17T19:07:08.005Z,74.83
2019-03-17T19:09:39.232Z,75.31
2019-03-17T19:12:10.414Z,75.54
2019-03-17T19:14:43.815Z,75.96
2019-03-17T19:17:15.081Z,76.38
2019-03-17T19:19:46.791Z,78.01
2019-03-17T19:22:18.001Z,77.86
2019-03-17T19:24:49.233Z,79.04
2019-03-17T19:27:20.477Z,79.12
2019-03-17T19:29:51.619Z,81.30
2019-03-17T19:32:23.219Z,80.97
2019-03-17T19:34:54.565Z,82.13
2019-03-17T19:37:26.061Z,81.55
2019-03-17T19:39:57.234Z,82.97
2019-03-17T19:42:28.395Z,82.61
2019-03-17T19:44:59.700Z,83.57
2019-03-17T19:47:30.875Z,82.83
2019-03-17T19:50:02.130Z,83.12
2019-03-17T19:52:33.328Z,83.52
2019-03-17T19:55:05.005Z,84.86
2019-03-17T19:57:36.373Z,84.22
2019-03-17T20:00:08.842Z,86.73
2019-03-17T20:02:41.135Z,85.99
2019-03-17T20:05:12.715Z,86.14
2019-03-17T20:07:43.948Z,87.37
2019-03-17T20:10:19.183Z,86.65
2019-03-17T20:12:50.405Z,87.01
2019-03-17T20:15:21.696Z,86.81
2019-03-17T20:17:53.247Z,87.44
2019-03-17T20:20:24.774Z,87.07
2019-03-17T20:22:55.937Z,89.04
2019-03-17T20:25:27.158Z,88.91
2019-03-17T20:27:58.782Z,90.25
2019-03-17T20:30:30.057Z,89.93
2019-03-17T20:33:01.263Z,90.03
2019-03-17T20:35:32.503Z,90.01
2019-03-17T20:38:03.895Z,90.20
2019-03-17T20:40:35.135Z,90.43
2019-03-17T20:43:18.656Z,90.47
2019-03-17T20:45:39.327Z,90.17
2019-03-17T20:48:10.977Z,90.26
2019-03-17T20:50:43.348Z,89.83
2019-03-17T20:53:14.530Z,89.64
2019-03-17T20:55:45.771Z,90.42
2019-03-17T20:58:16.915Z,89.88
2019-03-17T21:00:48.220Z,89.13
2019-03-17T21:03:19.398Z,89.25
2019-03-17T21:05:51.091Z,90.13
2019-03-17T21:08:22.221Z,89.44
2019-03-17T21:10:53.541Z,89.95
2019-03-17T21:13:25.720Z,89.50
2019-03-17T21:15:57.120Z,88.51
2019-03-17T21:18:28.251Z,88.71
2019-03-17T21:20:59.679Z,88.19
2019-03-17T21:23:30.894Z,88.04
2019-03-17T21:26:02.335Z,88.35
2019-03-17T21:28:33.845Z,88.40
2019-03-17T21:31:05.192Z,88.61
2019-03-17T21:33:40.223Z,89.21
2019-03-17T21:36:10.428Z,88.48
2019-03-17T21:38:41.624Z,88.25
2019-03-17T21:41:12.844Z,88.83
2019-03-17T21:43:44.305Z,88.24
2019-03-17T21:46:15.593Z,88.73
2019-03-17T21:48:46.828Z,87.46
2019-03-17T21:51:18.401Z,87.14
2019-03-17T21:53:49.566Z,87.31
2019-03-17T21:56:20.882Z,86.88
2019-03-17T21:58:52.087Z,87.26
2019-03-17T22:01:24.833Z,87.16
2019-03-17T22:03:56.062Z,86.85
2019-03-17T22:06:27.604Z,86.28
2019-03-17T22:08:59.431Z,86.12
2019-03-17T22:11:31.055Z,86.33
2019-03-17T22:14:11.655Z,86.76
2019-03-17T22:16:35.471Z,86.33
2019-03-17T22:19:07.011Z,85.90
2019-03-17T22:21:38.434Z,86.32
2019-03-17T22:24:10.521Z,85.96
2019-03-17T22:26:47.534Z,86.02
2019-03-17T22:29:19.083Z,86.17
2019-03-17T22:31:53.041Z,85.76
2019-03-17T22:34:24.204Z,83.78
2019-03-17T22:36:55.963Z,84.87
2019-03-17T22:39:27.053Z,83.90
2019-03-17T22:41:59.571Z,82.56
2019-03-17T22:44:31.155Z,81.34
2019-03-17T22:47:10.984Z,81.32
2019-03-17T22:49:45.594Z,81.12
2019-03-17T22:52:23.218Z,80.07
2019-03-17T22:54:57.088Z,79.83
2019-03-17T22:57:30.683Z,79.14
2019-03-17T23:00:02.223Z,79.37
2019-03-17T23:02:44.154Z,79.29
2019-03-17T23:05:15.794Z,79.80
2019-03-17T23:07:52.607Z,80.34
2019-03-17T23:10:24.046Z,80.10
2019-03-17T23:12:55.799Z,80.22
2019-03-17T23:15:27.263Z,79.88
2019-03-17T23:18:02.079Z,80.41
2019-03-17T23:20:36.837Z,79.32
2019-03-17T23:23:08.870Z,79.97
2019-03-17T23:25:45.574Z,80.83
2019-03-17T23:28:19.035Z,79.76
2019-03-17T23:31:00.629Z,78.93
2019-03-17T23:33:31.897Z,79.63
2019-03-17T23:36:04.213Z,79.79
2019-03-17T23:38:37.291Z,78.34
2019-03-17T23:41:11.890Z,78.43
2019-03-17T23:43:44.441Z,79.02
2019-03-17T23:46:15.698Z,78.73
2019-03-17T23:48:47.195Z,78.61
2019-03-17T23:51:20.828Z,79.84
2019-03-17T23:53:52.194Z,78.69
2019-03-17T23:56:29.768Z,78.79
2019-03-17T23:59:01.504Z,78.85
